createdAt,value
2023-01-29T00:10:33.052Z,101264.20
2023-01-29T00:21:48.025Z,101252.00
2023-01-29T00:51:03.337Z,101205.40
2023-01-29T01:09:57.499Z,101188.40
2023-01-29T01:21:51.778Z,101183.80
2023-01-29T01:25:49.382Z,101181.60
2023-01-29T01:29:19.778Z,101177.80
2023-01-29T01:32:55.095Z,101182.40
2023-01-29T01:36:25.790Z,101179.20
2023-01-29T01:39:54.204Z,101185.00
2023-01-29T01:43:10.084Z,101172.20
2023-01-29T02:06:03.212Z,101171.80
2023-01-29T02:30:03.369Z,101182.80
2023-01-29T02:38:29.948Z,101179.00
2023-01-29T02:48:42.768Z,101180.20
2023-01-29T03:05:05.231Z,101180.40
2023-01-29T03:30:34.337Z,101175.80
2023-01-29T03:34:18.086Z,101180.20
2023-01-29T03:38:05.043Z,101169.60
2023-01-29T03:41:39.872Z,101172.20
2023-01-29T03:56:45.063Z,101158.20
2023-01-29T04:07:00.362Z,101161.60
2023-01-29T04:22:34.107Z,101153.40
2023-01-29T04:45:25.762Z,101117.20
2023-01-29T04:48:32.573Z,101105.00
2023-01-29T04:51:32.786Z,101107.20
2023-01-29T04:54:19.635Z,101101.00
2023-01-29T04:57:29.500Z,101098.00
2023-01-29T05:00:32.601Z,101100.40
2023-01-29T05:03:03.294Z,101098.80
2023-01-29T05:05:32.213Z,101102.80
2023-01-29T05:08:01.040Z,101106.60
2023-01-29T05:10:30.712Z,101099.60
2023-01-29T05:13:03.782Z,101098.00
2023-01-29T05:15:49.498Z,101088.00
2023-01-29T05:18:18.232Z,101085.80
2023-01-29T05:20:48.957Z,101078.60
2023-01-29T05:23:20.074Z,101074.20
2023-01-29T05:25:51.976Z,101081.80
2023-01-29T05:28:20.626Z,101081.40
2023-01-29T05:30:56.469Z,101071.00
2023-01-29T05:33:27.594Z,101065.00
2023-01-29T05:35:59.873Z,101064.60
2023-01-29T05:38:28.611Z,101068.40
2023-01-29T05:40:59.994Z,101072.00
2023-01-29T05:43:28.773Z,101078.00
2023-01-29T05:46:02.341Z,101074.20
2023-01-29T05:48:32.539Z,101071.20
2023-01-29T05:51:05.914Z,101074.40
2023-01-29T05:53:34.992Z,101063.60
2023-01-29T05:56:05.653Z,101060.60
2023-01-29T05:58:35.173Z,101055.80
2023-01-29T06:01:17.892Z,101063.60
2023-01-29T06:03:47.046Z,101073.80
2023-01-29T06:06:16.074Z,101072.80
2023-01-29T06:08:44.794Z,101079.40
2023-01-29T06:11:15.492Z,101079.60
2023-01-29T06:13:45.758Z,101079.20
2023-01-29T06:16:14.932Z,101080.00
2023-01-29T06:18:44.135Z,101082.80
2023-01-29T06:21:14.555Z,101081.20
2023-01-29T06:23:43.274Z,101080.80
2023-01-29T06:26:15.534Z,101079.80
2023-01-29T06:28:46.261Z,101091.60
2023-01-29T06:31:35.289Z,101087.20
2023-01-29T06:34:04.176Z,101093.60
2023-01-29T06:36:32.868Z,101098.40
2023-01-29T06:39:01.744Z,101102.40
2023-01-29T06:41:30.442Z,101103.40
2023-01-29T06:43:59.267Z,101108.40
2023-01-29T06:46:28.149Z,101108.80
2023-01-29T06:49:00.901Z,101109.20
2023-01-29T06:51:29.735Z,101114.60
2023-01-29T06:53:58.657Z,101119.40
2023-01-29T06:56:27.620Z,101133.20
2023-01-29T06:58:56.318Z,101132.40
2023-01-29T07:01:35.739Z,101132.40
2023-01-29T07:04:05.215Z,101133.00
2023-01-29T07:06:34.504Z,101141.40
2023-01-29T07:09:04.827Z,101140.80
2023-01-29T07:11:35.896Z,101142.00
2023-01-29T07:14:05.172Z,101137.80
2023-01-29T07:16:34.515Z,101139.80
2023-01-29T07:19:03.330Z,101138.00
2023-01-29T07:21:32.011Z,101141.80
2023-01-29T07:24:00.640Z,101142.00
2023-01-29T07:26:29.535Z,101145.80
2023-01-29T07:28:58.142Z,101148.20
2023-01-29T07:31:26.859Z,101141.80
2023-01-29T07:33:56.207Z,101145.60
2023-01-29T07:36:24.887Z,101152.80
2023-01-29T07:38:53.631Z,101147.80
2023-01-29T07:41:22.716Z,101147.60
2023-01-29T07:43:51.478Z,101148.80
2023-01-29T07:46:20.195Z,101153.80
2023-01-29T07:48:48.753Z,101158.80
2023-01-29T07:51:18.775Z,101157.00
2023-01-29T07:53:48.113Z,101141.40
2023-01-29T07:56:16.905Z,101126.80
2023-01-29T07:58:46.111Z,101126.80
2023-01-29T08:01:14.984Z,101122.80
2023-01-29T08:03:43.699Z,101114.80
2023-01-29T08:06:12.284Z,101098.60
2023-01-29T08:08:40.873Z,101105.40
2023-01-29T08:11:09.691Z,101103.00
2023-01-29T08:13:38.371Z,101095.80
2023-01-29T08:16:07.710Z,101092.20
2023-01-29T08:18:38.281Z,101095.80
2023-01-29T08:21:06.913Z,101086.60
2023-01-29T08:23:35.557Z,101076.20
2023-01-29T08:26:04.714Z,101072.80
2023-01-29T08:28:34.013Z,101082.40
2023-01-29T08:31:02.730Z,101067.20
2023-01-29T08:33:39.147Z,101064.80
2023-01-29T08:36:09.860Z,101059.80
2023-01-29T08:38:38.775Z,101051.40
2023-01-29T08:41:08.614Z,101046.00
2023-01-29T08:43:37.450Z,101047.20
2023-01-29T08:46:07.867Z,101043.00
2023-01-29T08:48:36.787Z,101040.20
2023-01-29T08:51:05.814Z,101037.00
2023-01-29T08:53:34.492Z,101040.00
2023-01-29T08:56:03.215Z,101041.60
2023-01-29T08:58:31.897Z,101045.20
2023-01-29T09:01:09.636Z,101045.60
2023-01-29T09:03:41.270Z,101047.40
2023-01-29T09:06:12.900Z,101046.20
2023-01-29T09:08:41.905Z,101046.60
2023-01-29T09:11:11.600Z,101052.20
2023-01-29T09:13:40.314Z,101050.40
2023-01-29T09:16:10.733Z,101055.00
2023-01-29T09:18:39.474Z,101046.60
2023-01-29T09:21:08.624Z,101048.80
2023-01-29T09:23:37.458Z,101044.80
2023-01-29T09:26:08.692Z,101041.80
2023-01-29T09:28:37.373Z,101047.20
2023-01-29T09:31:06.301Z,101044.40
2023-01-29T09:33:35.132Z,101040.60
2023-01-29T09:36:04.912Z,101029.60
2023-01-29T09:38:33.537Z,101025.20
2023-01-29T09:41:29.387Z,101014.80
2023-01-29T09:44:07.456Z,101003.40
2023-01-29T09:46:49.518Z,101003.00
2023-01-29T09:49:36.072Z,100998.20
2023-01-29T09:52:35.513Z,100998.20
2023-01-29T09:55:12.671Z,101000.00
2023-01-29T09:58:28.812Z,100991.40
2023-01-29T10:01:34.758Z,100998.00
2023-01-29T10:04:46.952Z,100993.20
2023-01-29T10:07:53.294Z,100987.20
2023-01-29T10:10:51.977Z,100979.80
2023-01-29T10:13:42.015Z,100979.00
2023-01-29T10:16:51.998Z,100973.00
2023-01-29T10:19:45.089Z,100967.80
2023-01-29T10:22:46.246Z,100961.40
2023-01-29T10:25:20.919Z,100962.20
2023-01-29T10:27:57.556Z,100962.00
2023-01-29T10:30:34.317Z,100953.60
2023-01-29T10:33:06.815Z,100954.00
2023-01-29T10:35:43.174Z,100954.80
2023-01-29T10:38:44.820Z,100950.40
2023-01-29T10:41:31.312Z,100951.00
2023-01-29T10:44:28.253Z,100944.00
2023-01-29T10:47:30.687Z,100948.60
2023-01-29T10:50:33.752Z,100948.00
2023-01-29T10:53:27.933Z,100942.20
2023-01-29T10:56:23.693Z,100933.00
2023-01-29T10:58:59.792Z,100929.00
2023-01-29T11:01:28.673Z,100922.00
2023-01-29T11:04:05.234Z,100915.00
2023-01-29T11:06:37.399Z,100913.20
2023-01-29T11:12:17.351Z,100904.00
2023-01-29T11:15:00.833Z,100895.60
2023-01-29T11:17:29.547Z,100902.80
2023-01-29T11:19:58.205Z,100901.00
2023-01-29T11:22:30.484Z,100898.00
2023-01-29T11:25:20.817Z,100900.40
2023-01-29T11:28:03.332Z,100897.40
2023-01-29T11:30:39.429Z,100902.20
2023-01-29T11:33:20.956Z,100896.80
2023-01-29T11:35:49.996Z,100898.20
2023-01-29T11:38:27.553Z,100894.40
2023-01-29T11:41:22.698Z,100892.40
2023-01-29T11:43:51.415Z,100884.00
2023-01-29T11:46:20.315Z,100879.40
2023-01-29T11:48:58.943Z,100876.20
2023-01-29T11:51:37.971Z,100868.00
2023-01-29T11:54:16.074Z,100861.40
2023-01-29T11:56:48.743Z,100856.40
2023-01-29T11:59:30.596Z,100854.80
2023-01-29T12:02:24.155Z,100852.40
2023-01-29T12:04:57.037Z,100843.80
2023-01-29T12:07:26.352Z,100838.40
2023-01-29T12:09:59.181Z,100834.20
2023-01-29T12:12:40.491Z,100829.40
2023-01-29T12:15:09.099Z,100817.00
2023-01-29T12:17:40.293Z,100817.60
2023-01-29T12:20:21.380Z,100801.00
2023-01-29T12:23:09.054Z,100791.20
2023-01-29T12:26:05.751Z,100790.60
2023-01-29T12:29:14.212Z,100787.80
2023-01-29T12:32:33.043Z,100790.40
2023-01-29T12:35:25.736Z,100786.80
2023-01-29T12:38:03.738Z,100775.00
2023-01-29T12:40:44.375Z,100774.00
2023-01-29T12:44:05.153Z,100773.00
2023-01-29T12:46:50.849Z,100766.60
2023-01-29T12:49:28.315Z,100760.80
2023-01-29T12:52:21.535Z,100762.00
2023-01-29T12:55:01.525Z,100762.00
2023-01-29T12:57:57.588Z,100751.40
2023-01-29T13:00:30.854Z,100737.80
2023-01-29T13:03:08.661Z,100742.00
2023-01-29T13:05:57.795Z,100734.00
2023-01-29T13:08:46.000Z,100734.60
2023-01-29T13:11:28.658Z,100731.20
2023-01-29T13:14:07.054Z,100733.80
2023-01-29T13:16:44.331Z,100736.40
2023-01-29T13:19:29.093Z,100738.80
2023-01-29T13:22:03.155Z,100741.60
2023-01-29T13:24:42.334Z,100738.40
2023-01-29T13:27:30.711Z,100734.80
2023-01-29T13:30:01.005Z,100731.20
2023-01-29T13:32:36.676Z,100729.40
2023-01-29T13:35:15.609Z,100729.60
2023-01-29T13:38:03.771Z,100729.60
2023-01-29T13:40:35.000Z,100737.00
2023-01-29T13:43:04.396Z,100740.20
2023-01-29T13:45:46.337Z,100730.40
2023-01-29T13:48:29.665Z,100734.00
2023-01-29T13:51:03.879Z,100730.00
2023-01-29T13:53:41.593Z,100724.00
2023-01-29T13:56:33.772Z,100720.80
2023-01-29T13:59:07.036Z,100713.60
2023-01-29T14:01:47.846Z,100718.80
2023-01-29T14:04:19.354Z,100714.40
2023-01-29T14:06:52.265Z,100714.60
2023-01-29T14:09:39.303Z,100714.00
2023-01-29T14:12:39.538Z,100718.40
2023-01-29T14:15:32.187Z,100711.00
2023-01-29T14:18:20.361Z,100711.00
2023-01-29T14:20:49.961Z,100714.60
2023-01-29T14:23:38.164Z,100711.40
2023-01-29T14:26:22.842Z,100712.40
2023-01-29T14:29:02.671Z,100714.60
2023-01-29T14:31:51.044Z,100716.40
2023-01-29T14:34:42.960Z,100715.00
2023-01-29T14:37:39.771Z,100717.00
2023-01-29T14:40:11.495Z,100715.20
2023-01-29T14:42:47.755Z,100711.00
2023-01-29T14:45:35.224Z,100712.80
2023-01-29T14:48:10.301Z,100709.60
2023-01-29T14:50:47.567Z,100703.80
2023-01-29T14:53:23.572Z,100701.20
2023-01-29T14:56:16.114Z,100703.20
2023-01-29T14:59:21.190Z,100712.40
2023-01-29T15:01:56.994Z,100715.80
2023-01-29T15:04:40.673Z,100706.40
2023-01-29T15:07:12.138Z,100708.00
2023-01-29T15:10:22.029Z,100705.00
2023-01-29T15:13:05.224Z,100704.80
2023-01-29T15:16:09.622Z,100706.80
2023-01-29T15:18:42.482Z,100707.00
2023-01-29T15:21:20.053Z,100718.80
2023-01-29T15:24:03.626Z,100714.00
2023-01-29T15:26:33.814Z,100714.20
2023-01-29T15:29:04.700Z,100709.60
2023-01-29T15:31:35.820Z,100708.40
2023-01-29T15:34:08.040Z,100705.60
2023-01-29T15:36:40.381Z,100712.80
2023-01-29T15:39:24.495Z,100714.00
2023-01-29T15:42:14.643Z,100714.20
2023-01-29T15:44:47.018Z,100718.80
2023-01-29T15:47:16.517Z,100725.60
2023-01-29T15:49:47.995Z,100715.80
2023-01-29T15:52:24.574Z,100718.20
2023-01-29T15:54:57.306Z,100719.00
2023-01-29T15:57:37.986Z,100719.40
2023-01-29T16:00:19.156Z,100722.00
2023-01-29T16:02:48.894Z,100719.00
2023-01-29T16:05:32.559Z,100716.80
2023-01-29T16:08:02.237Z,100714.40
2023-01-29T16:10:34.054Z,100716.20
2023-01-29T16:13:04.409Z,100712.80
2023-01-29T16:15:41.217Z,100712.00
2023-01-29T16:18:30.233Z,100703.60
2023-01-29T16:21:07.020Z,100704.80
2023-01-29T16:23:54.855Z,100711.60
2023-01-29T16:26:35.414Z,100708.60
2023-01-29T16:29:17.497Z,100703.00
2023-01-29T16:31:50.883Z,100696.80
2023-01-29T16:34:42.898Z,100696.80
2023-01-29T16:37:37.026Z,100693.20
2023-01-29T16:40:33.457Z,100694.60
2023-01-29T16:43:31.248Z,100693.60
2023-01-29T16:46:16.239Z,100688.00
2023-01-29T16:48:45.227Z,100690.00
2023-01-29T16:51:37.897Z,100694.80
2023-01-29T16:54:19.403Z,100698.80
2023-01-29T16:56:52.393Z,100694.40
2023-01-29T16:59:33.936Z,100692.40
2023-01-29T17:02:04.814Z,100696.80
2023-01-29T17:04:34.467Z,100689.20
2023-01-29T17:07:03.298Z,100686.40
2023-01-29T17:09:38.362Z,100676.80
2023-01-29T17:12:20.275Z,100668.00
2023-01-29T17:15:00.814Z,100669.60
2023-01-29T17:17:36.504Z,100666.60
2023-01-29T17:20:16.839Z,100667.80
2023-01-29T17:22:47.307Z,100666.40
2023-01-29T17:25:17.425Z,100655.80
2023-01-29T17:27:51.890Z,100649.80
2023-01-29T17:30:24.775Z,100646.00
2023-01-29T17:32:54.133Z,100641.20
2023-01-29T17:35:23.295Z,100640.00
2023-01-29T17:37:52.041Z,100645.20
2023-01-29T17:40:40.934Z,100643.40
2023-01-29T17:43:12.004Z,100650.60
2023-01-29T17:45:41.194Z,100646.60
2023-01-29T17:48:25.486Z,100646.80
2023-01-29T17:50:59.261Z,100646.00
2023-01-29T17:53:43.312Z,100641.60
2023-01-29T17:56:33.004Z,100639.20
2023-01-29T17:59:02.272Z,100632.60
2023-01-29T18:01:31.046Z,100624.60
2023-01-29T18:03:59.719Z,100624.00
2023-01-29T18:06:30.453Z,100612.20
2023-01-29T18:08:59.259Z,100615.00
2023-01-29T18:11:29.076Z,100610.40
2023-01-29T18:13:58.655Z,100609.00
2023-01-29T18:16:36.976Z,100601.00
2023-01-29T18:19:22.709Z,100601.20
2023-01-29T18:21:51.663Z,100596.60
2023-01-29T18:24:21.753Z,100599.20
2023-01-29T18:26:51.632Z,100595.60
2023-01-29T18:29:20.354Z,100599.00
2023-01-29T18:31:50.188Z,100595.80
2023-01-29T18:34:19.476Z,100587.40
2023-01-29T18:36:48.521Z,100585.20
2023-01-29T18:39:17.714Z,100584.20
2023-01-29T18:41:46.354Z,100580.60
2023-01-29T18:44:15.059Z,100579.40
2023-01-29T18:46:43.861Z,100568.00
2023-01-29T18:49:12.594Z,100570.20
2023-01-29T18:51:41.353Z,100564.20
2023-01-29T18:54:13.482Z,100564.60
2023-01-29T18:57:06.166Z,100560.20
2023-01-29T18:59:31.507Z,100560.80
2023-01-29T19:02:00.359Z,100559.20
2023-01-29T19:04:29.234Z,100555.20
2023-01-29T19:06:57.934Z,100554.20
2023-01-29T19:09:26.844Z,100556.00
2023-01-29T19:11:55.618Z,100548.40
2023-01-29T19:14:24.396Z,100549.80
2023-01-29T19:16:53.151Z,100549.60
2023-01-29T19:19:22.036Z,100550.20
2023-01-29T19:21:55.914Z,100549.40
2023-01-29T19:24:24.706Z,100545.60
2023-01-29T19:26:54.084Z,100542.80
2023-01-29T19:29:23.019Z,100535.80
2023-01-29T19:31:51.754Z,100540.80
2023-01-29T19:34:20.474Z,100537.20
2023-01-29T19:36:49.215Z,100542.00
2023-01-29T19:39:17.980Z,100535.60
2023-01-29T19:41:46.715Z,100536.00
2023-01-29T19:44:15.434Z,100526.40
2023-01-29T19:46:44.257Z,100517.40
2023-01-29T20:10:47.758Z,100502.40
2023-01-29T20:13:16.730Z,100497.00
2023-01-29T20:15:50.497Z,100498.60
2023-01-29T20:18:20.343Z,100497.60
2023-01-29T20:20:53.822Z,100496.00
2023-01-29T20:23:36.560Z,100493.20
2023-01-29T20:26:15.915Z,100487.60
2023-01-29T20:47:33.843Z,100487.40
2023-01-29T20:50:09.021Z,100490.40
2023-01-29T20:52:40.245Z,100486.60
2023-01-29T20:55:12.557Z,100482.00
2023-01-29T20:57:41.618Z,100478.40
2023-01-29T21:00:15.865Z,100473.20
2023-01-29T21:02:46.233Z,100469.20
2023-01-29T21:05:16.885Z,100460.60
2023-01-29T21:07:45.660Z,100454.60
2023-01-29T21:10:15.151Z,100459.80
2023-01-29T21:12:44.082Z,100451.40
2023-01-29T21:15:12.979Z,100448.20
2023-01-29T21:17:41.797Z,100442.80
2023-01-29T21:20:11.338Z,100445.40
2023-01-29T21:22:42.957Z,100445.20
2023-01-29T21:25:12.197Z,100446.40
2023-01-29T21:27:40.977Z,100440.00
2023-01-29T21:30:10.636Z,100439.00
2023-01-29T21:32:39.395Z,100437.20
2023-01-29T21:35:08.856Z,100434.00
2023-01-29T21:37:38.316Z,100424.40
2023-01-29T21:40:09.096Z,100414.00
2023-01-29T21:42:56.460Z,100415.20
2023-01-29T21:45:25.839Z,100404.60
2023-01-29T21:47:55.267Z,100415.20
2023-01-29T21:50:24.477Z,100412.20
2023-01-29T21:52:54.249Z,100402.40
2023-01-29T21:55:23.056Z,100392.60
2023-01-29T21:57:51.838Z,100389.40
2023-01-29T22:00:20.776Z,100388.40
2023-01-29T22:02:50.644Z,100384.00
2023-01-29T22:05:20.439Z,100384.60
2023-01-29T22:07:50.360Z,100377.60
2023-01-29T22:10:20.545Z,100383.00
2023-01-29T22:12:49.747Z,100380.80
2023-01-29T22:15:18.722Z,100378.20
2023-01-29T22:17:47.401Z,100374.80
2023-01-29T22:20:16.656Z,100366.80
2023-01-29T22:22:45.686Z,100360.20
2023-01-29T22:25:20.224Z,100357.60
2023-01-29T22:27:48.922Z,100351.20
2023-01-29T22:30:18.449Z,100350.00
2023-01-29T22:32:47.229Z,100345.60
2023-01-29T22:35:16.101Z,100333.80
2023-01-29T22:37:45.485Z,100325.60
2023-01-29T22:40:14.711Z,100318.20
2023-01-29T22:42:43.507Z,100308.20
2023-01-29T22:45:12.799Z,100298.20
2023-01-29T22:47:41.547Z,100293.60
2023-01-29T22:50:11.345Z,100287.20
2023-01-29T22:52:42.864Z,100286.80
2023-01-29T22:55:13.690Z,100275.00
2023-01-29T22:57:42.375Z,100274.80
2023-01-29T23:01:32.035Z,100261.00
2023-01-29T23:06:00.982Z,100261.00
2023-01-29T23:20:28.505Z,100217.60
2023-01-29T23:24:24.607Z,100220.80
2023-01-29T23:28:05.144Z,100200.60
2023-01-29T23:31:56.796Z,100203.60
2023-01-29T23:35:28.501Z,100198.00
2023-01-29T23:39:48.373Z,100181.20
2023-01-29T23:44:00.427Z,100156.20
2023-01-29T23:47:31.454Z,100152.40
2023-01-29T23:51:02.160Z,100146.60
2023-01-29T23:54:32.445Z,100137.00
2023-01-29T23:58:02.206Z,100134.00
